createdAt,value
2023-02-22T00:02:05.454Z,81.43
2023-02-22T00:14:05.889Z,87.72
2023-02-22T00:26:06.353Z,83.44
2023-02-22T00:38:06.786Z,82.99
2023-02-22T00:50:07.221Z,84.44
2023-02-22T01:02:07.698Z,83.47
2023-02-22T01:14:08.143Z,84.96
2023-02-22T01:26:08.607Z,86.05
2023-02-22T01:38:09.040Z,90.21
2023-02-22T01:50:09.477Z,83.81
2023-02-22T02:02:09.955Z,85.53
2023-02-22T02:14:10.430Z,86.93
2023-02-22T02:26:10.852Z,85.86
2023-02-22T02:38:11.277Z,88.55
2023-02-22T02:50:11.749Z,84.85
2023-02-22T03:02:12.214Z,89.13
2023-02-22T03:14:12.618Z,88.02
2023-02-22T03:26:13.070Z,85.84
2023-02-22T03:38:13.529Z,85.79
2023-02-22T03:50:14.021Z,84.66
2023-02-22T04:02:14.474Z,83.63
2023-02-22T04:14:14.907Z,87.31
2023-02-22T04:26:15.336Z,84.21
2023-02-22T04:38:15.873Z,90.31
2023-02-22T04:50:16.233Z,88.31
2023-02-22T05:02:16.743Z,84.76
2023-02-22T05:14:17.149Z,88.33
2023-02-22T05:26:17.643Z,86.00
2023-02-22T05:38:18.068Z,88.39
2023-02-22T05:50:18.481Z,86.06
2023-02-22T06:02:19.024Z,85.54
2023-02-22T06:14:19.461Z,90.11
2023-02-22T06:26:19.883Z,86.66
2023-02-22T06:38:20.344Z,83.02
2023-02-22T06:50:20.779Z,82.76
2023-02-22T07:02:21.239Z,86.66
2023-02-22T07:14:21.658Z,87.04
2023-02-22T07:26:22.145Z,87.94
2023-02-22T07:38:22.584Z,88.53
2023-02-22T07:50:23.129Z,86.60
2023-02-22T08:02:23.542Z,85.63
2023-02-22T08:14:23.949Z,79.89
2023-02-22T08:26:24.394Z,78.81
2023-02-22T08:38:24.857Z,76.79
2023-02-22T08:50:25.340Z,72.65
2023-02-22T09:02:25.813Z,71.37
2023-02-22T09:14:26.182Z,66.52
2023-02-22T09:26:26.707Z,63.57
2023-02-22T09:38:27.096Z,61.23
2023-02-22T09:50:27.554Z,59.20
2023-02-22T10:02:28.030Z,59.15
2023-02-22T10:14:28.475Z,57.54
2023-02-22T10:26:28.885Z,56.48
2023-02-22T10:38:29.394Z,57.87
2023-02-22T10:50:29.821Z,55.58
2023-02-22T11:02:30.263Z,53.57
2023-02-22T11:14:30.745Z,54.93
2023-02-22T11:26:31.188Z,52.91
2023-02-22T11:38:31.600Z,53.96
2023-02-22T11:50:32.075Z,52.41
2023-02-22T12:02:32.555Z,51.86
2023-02-22T12:14:33.019Z,49.13
2023-02-22T12:26:33.435Z,47.22
2023-02-22T12:38:33.988Z,47.69
2023-02-22T12:50:34.456Z,49.29
2023-02-22T13:02:34.856Z,49.52
2023-02-22T13:14:35.294Z,49.18
2023-02-22T13:26:35.757Z,47.64
2023-02-22T13:38:36.235Z,49.01
2023-02-22T13:50:36.641Z,48.80
2023-02-22T14:02:37.127Z,47.90
2023-02-22T14:14:37.594Z,48.21
2023-02-22T14:26:38.064Z,49.32
2023-02-22T14:38:38.439Z,49.10
2023-02-22T14:50:38.955Z,50.57
2023-02-22T15:02:39.451Z,52.10
2023-02-22T15:14:39.859Z,54.72
2023-02-22T15:26:49.020Z,56.21
2023-02-22T15:38:40.778Z,60.08
2023-02-22T15:50:41.240Z,62.23
2023-02-22T16:02:41.823Z,63.21
2023-02-22T16:14:42.119Z,65.70
2023-02-22T16:26:42.583Z,69.12
2023-02-22T16:38:43.045Z,71.22
2023-02-22T16:50:43.478Z,70.21
2023-02-22T17:02:43.917Z,70.19
2023-02-22T17:14:44.359Z,72.04
2023-02-22T17:26:44.849Z,72.18
2023-02-22T17:38:45.272Z,77.13
2023-02-22T17:50:45.745Z,77.17
2023-02-22T18:02:46.269Z,75.96
2023-02-22T18:14:46.664Z,79.51
2023-02-22T18:26:47.145Z,80.17
2023-02-22T18:38:47.548Z,77.02
2023-02-22T18:50:48.040Z,79.91
2023-02-22T19:02:48.528Z,79.55
2023-02-22T19:14:48.930Z,78.72
2023-02-22T19:26:49.332Z,80.91
2023-02-22T19:38:49.812Z,81.80
2023-02-22T19:50:50.298Z,80.37
2023-02-22T20:02:50.718Z,83.21
2023-02-22T20:14:51.238Z,86.33
2023-02-22T20:26:51.651Z,80.87
2023-02-22T20:38:52.129Z,85.52
2023-02-22T20:50:52.525Z,81.22
2023-02-22T21:02:52.998Z,82.43
2023-02-22T21:14:53.422Z,89.05
2023-02-22T21:26:53.926Z,85.30
2023-02-22T21:38:54.375Z,83.10
2023-02-22T21:50:54.832Z,82.75
2023-02-22T22:02:55.297Z,85.11
2023-02-22T22:14:55.686Z,83.85
2023-02-22T22:26:56.178Z,86.55
2023-02-22T22:38:56.623Z,83.37
2023-02-22T22:50:57.030Z,85.70
2023-02-22T23:02:57.636Z,85.26
2023-02-22T23:14:57.967Z,84.10
2023-02-22T23:26:58.423Z,89.46
2023-02-22T23:38:58.878Z,87.12
2023-02-22T23:50:59.394Z,87.14
